createdAt,value
2023-01-03T00:01:26.504Z,84.66
2023-01-03T00:03:55.671Z,85.01
2023-01-03T00:06:28.467Z,85.57
2023-01-03T00:08:56.776Z,85.71
2023-01-03T00:11:45.618Z,86.40
2023-01-03T00:14:18.485Z,86.81
2023-01-03T00:16:46.940Z,87.05
2023-01-03T00:19:15.282Z,87.75
2023-01-03T00:21:43.162Z,87.56
2023-01-03T00:24:11.309Z,88.14
2023-01-03T00:26:40.283Z,87.69
2023-01-03T00:29:08.178Z,87.98
2023-01-03T00:31:36.350Z,87.34
2023-01-03T00:34:03.829Z,88.15
2023-01-03T00:36:31.177Z,88.35
2023-01-03T00:38:58.488Z,88.13
2023-01-03T00:41:26.087Z,89.11
2023-01-03T00:43:53.342Z,88.09
2023-01-03T00:46:21.473Z,88.38
2023-01-03T00:48:49.017Z,88.66
2023-01-03T00:51:21.715Z,88.58
2023-01-03T00:53:50.594Z,89.49
2023-01-03T00:56:21.067Z,89.71
2023-01-03T00:58:48.665Z,89.75
2023-01-03T01:01:27.490Z,89.81
2023-01-03T01:04:01.676Z,90.46
2023-01-03T01:06:34.850Z,90.52
2023-01-03T01:09:04.077Z,91.21
2023-01-03T01:11:31.557Z,91.31
2023-01-03T01:13:58.933Z,90.28
2023-01-03T01:16:29.386Z,90.78
2023-01-03T01:18:58.385Z,90.68
2023-01-03T01:21:29.783Z,90.29
2023-01-03T01:23:57.947Z,91.19
2023-01-03T01:26:25.642Z,91.42
2023-01-03T01:28:54.034Z,91.85
2023-01-03T01:31:23.850Z,91.81
2023-01-03T01:33:52.164Z,91.93
2023-01-03T01:36:27.959Z,92.22
2023-01-03T01:38:57.278Z,91.65
2023-01-03T01:41:42.906Z,90.97
2023-01-03T01:44:49.256Z,90.40
2023-01-03T01:47:43.626Z,89.80
2023-01-03T01:50:19.812Z,89.72
2023-01-03T01:52:52.288Z,90.70
2023-01-03T01:55:22.049Z,91.76
2023-01-03T01:57:49.253Z,92.02
2023-01-03T02:00:16.556Z,92.33
2023-01-03T02:02:45.098Z,92.30
2023-01-03T02:05:12.683Z,91.79
2023-01-03T02:07:40.385Z,92.17
2023-01-03T02:10:08.070Z,92.08
2023-01-03T02:13:01.226Z,92.24
2023-01-03T02:15:50.488Z,92.28
2023-01-03T02:18:29.498Z,92.41
2023-01-03T02:21:21.645Z,92.71
2023-01-03T02:24:16.620Z,91.97
2023-01-03T02:27:15.832Z,92.25
2023-01-03T02:29:59.651Z,92.16
2023-01-03T02:32:50.714Z,91.90
2023-01-03T02:35:22.944Z,91.67
2023-01-03T02:37:59.309Z,91.19
2023-01-03T02:40:53.256Z,91.22
2023-01-03T02:43:38.349Z,91.23
2023-01-03T02:46:14.087Z,90.42
2023-01-03T02:48:45.019Z,90.45
2023-01-03T02:51:41.253Z,90.17
2023-01-03T02:54:12.251Z,90.39
2023-01-03T02:56:55.632Z,90.18
2023-01-03T02:59:36.726Z,88.72
2023-01-03T03:02:05.401Z,89.81
2023-01-03T03:04:35.157Z,89.99
2023-01-03T03:07:09.498Z,89.07
2023-01-03T03:09:56.658Z,89.63
2023-01-03T03:12:42.905Z,89.46
2023-01-03T03:15:12.045Z,89.55
2023-01-03T03:17:39.331Z,88.83
2023-01-03T03:20:34.019Z,88.04
2023-01-03T03:23:41.100Z,87.85
2023-01-03T03:26:11.327Z,88.41
2023-01-03T03:28:43.406Z,87.24
2023-01-03T03:31:25.296Z,87.25
2023-01-03T03:34:04.252Z,87.78
2023-01-03T03:36:54.068Z,88.29
2023-01-03T03:39:41.412Z,87.32
2023-01-03T03:42:49.573Z,88.06
2023-01-03T03:45:33.300Z,88.16
2023-01-03T03:48:14.075Z,87.08
2023-01-03T03:50:49.603Z,87.02
2023-01-03T03:53:18.348Z,86.85
2023-01-03T03:56:05.648Z,87.16
2023-01-03T03:58:39.998Z,87.79
2023-01-03T04:01:09.078Z,88.75
2023-01-03T04:03:37.429Z,87.89
2023-01-03T04:06:10.200Z,87.94
2023-01-03T04:08:37.618Z,88.75
2023-01-03T04:11:07.719Z,88.68
2023-01-03T04:13:36.519Z,89.06
2023-01-03T04:16:04.499Z,88.57
2023-01-03T04:18:31.718Z,88.45
2023-01-03T04:20:59.027Z,87.75
2023-01-03T04:23:26.234Z,87.51
2023-01-03T04:25:53.466Z,89.14
2023-01-03T04:28:20.694Z,88.30
2023-01-03T04:30:48.154Z,88.51
2023-01-03T04:33:15.336Z,88.41
2023-01-03T04:35:42.508Z,89.63
2023-01-03T04:38:10.218Z,89.66
2023-01-03T04:40:40.625Z,89.82
2023-01-03T04:43:26.577Z,90.49
2023-01-03T04:45:53.821Z,91.97
2023-01-03T04:48:21.062Z,92.84
2023-01-03T04:50:55.837Z,93.08
2023-01-03T04:53:24.823Z,92.86
2023-01-03T04:55:53.207Z,93.09
2023-01-03T04:58:20.954Z,93.37
2023-01-03T05:00:48.250Z,94.51
2023-01-03T05:03:15.560Z,94.01
2023-01-03T05:05:42.827Z,93.63
2023-01-03T05:08:11.656Z,93.51
2023-01-03T05:10:39.753Z,94.26
2023-01-03T05:13:07.365Z,94.41
2023-01-03T05:15:38.671Z,94.33
2023-01-03T05:18:06.358Z,93.36
2023-01-03T05:20:55.628Z,93.61
2023-01-03T05:23:41.693Z,93.34
2023-01-03T05:26:18.765Z,93.57
2023-01-03T05:28:49.306Z,93.71
2023-01-03T05:31:19.802Z,93.65
2023-01-03T05:33:47.143Z,94.05
2023-01-03T05:36:16.476Z,93.88
2023-01-03T05:38:43.979Z,94.14
2023-01-03T05:41:13.778Z,93.97
2023-01-03T05:43:40.925Z,93.62
2023-01-03T05:46:08.216Z,94.13
2023-01-03T05:48:35.444Z,94.50
2023-01-03T05:51:02.658Z,94.16
2023-01-03T05:53:29.852Z,94.30
2023-01-03T05:55:57.055Z,94.02
2023-01-03T05:58:24.247Z,94.67
2023-01-03T06:00:51.777Z,94.16
2023-01-03T06:03:18.970Z,94.84
2023-01-03T06:05:50.095Z,94.48
2023-01-03T06:08:17.867Z,94.15
2023-01-03T06:10:45.250Z,94.52
2023-01-03T06:13:12.858Z,94.19
2023-01-03T06:15:40.055Z,94.45
2023-01-03T06:18:07.240Z,94.78
2023-01-03T06:20:34.674Z,95.01
2023-01-03T06:23:01.840Z,95.17
2023-01-03T06:25:29.060Z,95.57
2023-01-03T06:27:56.269Z,95.79
2023-01-03T06:30:23.476Z,95.56
2023-01-03T06:32:50.881Z,95.79
2023-01-03T06:35:18.079Z,96.06
2023-01-03T06:37:45.261Z,96.08
2023-01-03T06:40:12.634Z,96.16
2023-01-03T06:42:39.802Z,96.38
2023-01-03T06:45:26.168Z,96.14
2023-01-03T06:48:12.012Z,96.64
2023-01-03T06:50:59.505Z,96.15
2023-01-03T06:53:37.675Z,96.56
2023-01-03T06:56:05.538Z,96.94
2023-01-03T06:58:32.732Z,97.29
2023-01-03T07:01:02.640Z,97.26
2023-01-03T07:03:31.211Z,97.45
2023-01-03T07:05:58.391Z,97.24
2023-01-03T07:08:25.605Z,97.08
2023-01-03T07:10:52.916Z,97.51
2023-01-03T07:13:55.483Z,97.67
2023-01-03T07:16:22.825Z,97.67
2023-01-03T07:18:55.034Z,97.70
2023-01-03T07:21:23.828Z,97.85
2023-01-03T07:23:58.244Z,98.15
2023-01-03T07:26:26.018Z,97.99
2023-01-03T07:28:53.501Z,97.77
2023-01-03T07:31:21.015Z,97.95
2023-01-03T07:33:48.319Z,97.81
2023-01-03T07:36:16.889Z,97.76
2023-01-03T07:38:45.196Z,97.63
2023-01-03T07:41:13.199Z,97.81
2023-01-03T07:43:43.136Z,97.94
2023-01-03T07:46:17.930Z,97.95
2023-01-03T07:48:46.694Z,98.50
2023-01-03T07:51:15.854Z,98.56
2023-01-03T07:53:43.544Z,98.54
2023-01-03T07:56:14.496Z,98.65
2023-01-03T07:58:43.390Z,99.31
2023-01-03T08:01:18.656Z,99.30
2023-01-03T08:03:46.457Z,99.39
2023-01-03T08:06:15.898Z,99.31
2023-01-03T08:08:43.402Z,99.38
2023-01-03T08:11:33.311Z,100.00
2023-01-03T08:14:00.765Z,99.20
2023-01-03T08:16:28.210Z,99.46
2023-01-03T08:18:55.476Z,98.89
2023-01-03T08:21:22.950Z,98.95
2023-01-03T08:23:50.648Z,98.78
2023-01-03T08:26:18.120Z,98.40
2023-01-03T08:28:45.579Z,98.10
2023-01-03T08:31:21.403Z,98.23
2023-01-03T08:33:57.985Z,97.68
2023-01-03T08:36:27.073Z,97.37
2023-01-03T08:39:02.601Z,97.05
2023-01-03T08:41:32.000Z,95.79
2023-01-03T08:44:00.138Z,95.36
2023-01-03T08:46:27.679Z,95.12
2023-01-03T08:48:55.771Z,95.94
2023-01-03T08:51:26.530Z,94.83
2023-01-03T08:53:53.991Z,94.25
2023-01-03T08:56:21.384Z,94.19
2023-01-03T08:58:48.594Z,93.37
2023-01-03T09:01:16.118Z,92.09
2023-01-03T09:03:43.646Z,92.64
2023-01-03T09:06:13.865Z,91.77
2023-01-03T09:08:41.199Z,91.22
2023-01-03T09:11:09.063Z,91.22
2023-01-03T09:13:37.378Z,91.14
2023-01-03T09:16:06.869Z,91.17
2023-01-03T09:18:34.962Z,90.52
2023-01-03T09:21:03.306Z,90.04
2023-01-03T09:23:31.469Z,88.75
2023-01-03T09:26:01.928Z,87.88
2023-01-03T09:28:33.456Z,87.87
2023-01-03T09:31:00.833Z,86.71
2023-01-03T09:33:28.302Z,86.49
2023-01-03T09:35:56.070Z,85.40
2023-01-03T09:38:24.189Z,85.13
2023-01-03T09:41:03.143Z,84.63
2023-01-03T09:43:36.995Z,85.13
2023-01-03T09:46:06.046Z,84.79
2023-01-03T09:48:35.561Z,83.42
2023-01-03T09:51:19.764Z,83.53
2023-01-03T09:54:08.587Z,83.24
2023-01-03T09:56:54.268Z,86.45
2023-01-03T09:59:40.437Z,85.45
2023-01-03T10:02:51.502Z,85.26
2023-01-03T10:06:02.143Z,84.52
2023-01-03T10:08:35.582Z,83.72
2023-01-03T10:11:24.520Z,83.49
2023-01-03T10:14:03.489Z,82.14
2023-01-03T10:16:59.736Z,83.21
2023-01-03T10:20:07.965Z,83.22
2023-01-03T10:22:37.211Z,80.96
2023-01-03T10:25:11.930Z,80.07
2023-01-03T10:27:45.540Z,78.88
2023-01-03T10:30:58.295Z,79.31
2023-01-03T10:33:33.366Z,80.16
2023-01-03T10:36:01.278Z,78.63
2023-01-03T10:38:29.393Z,80.11
2023-01-03T10:41:01.796Z,78.94
2023-01-03T10:43:46.225Z,79.61
2023-01-03T10:46:25.424Z,78.51
2023-01-03T10:49:25.830Z,80.11
2023-01-03T10:52:03.842Z,79.15
2023-01-03T10:55:15.830Z,80.05
2023-01-03T10:57:48.825Z,78.63
2023-01-03T11:00:36.234Z,78.28
2023-01-03T11:03:11.529Z,80.07
2023-01-03T11:05:40.694Z,78.99
2023-01-03T11:08:20.210Z,79.72
2023-01-03T11:10:56.577Z,80.12
2023-01-03T11:13:34.307Z,77.83
2023-01-03T11:16:03.889Z,75.49
2023-01-03T11:18:31.665Z,75.31
2023-01-03T11:21:18.160Z,77.53
2023-01-03T11:23:56.417Z,77.08
2023-01-03T11:26:50.240Z,76.06
2023-01-03T11:29:45.051Z,76.92
2023-01-03T11:32:28.462Z,75.66
2023-01-03T11:35:29.515Z,76.46
2023-01-03T11:38:11.489Z,77.04
2023-01-03T11:41:03.427Z,77.16
2023-01-03T11:43:54.243Z,76.65
2023-01-03T11:46:52.416Z,78.21
2023-01-03T11:49:44.561Z,76.48
2023-01-03T11:52:45.823Z,75.53
2023-01-03T11:55:40.477Z,75.83
2023-01-03T11:58:42.611Z,77.45
2023-01-03T12:01:24.963Z,76.95
2023-01-03T12:04:05.451Z,75.96
2023-01-03T12:07:14.303Z,77.09
2023-01-03T12:09:57.701Z,76.05
2023-01-03T12:12:30.128Z,75.33
2023-01-03T12:15:15.129Z,75.42
2023-01-03T12:17:54.617Z,75.38
2023-01-03T12:20:37.556Z,78.25
2023-01-03T12:23:31.581Z,78.47
2023-01-03T12:26:05.472Z,78.77
2023-01-03T12:28:51.286Z,77.36
2023-01-03T12:31:20.433Z,76.35
2023-01-03T12:34:05.911Z,77.56
2023-01-03T12:36:45.396Z,75.96
2023-01-03T12:39:36.998Z,75.21
2023-01-03T12:42:38.269Z,75.08
2023-01-03T12:45:08.521Z,75.61
2023-01-03T12:47:59.650Z,73.96
2023-01-03T12:50:39.024Z,75.00
2023-01-03T12:53:23.765Z,75.20
2023-01-03T12:56:09.081Z,73.96
2023-01-03T12:59:01.173Z,76.51
2023-01-03T13:02:04.771Z,78.64
2023-01-03T13:04:34.930Z,78.84
2023-01-03T13:07:18.903Z,78.23
2023-01-03T13:10:00.776Z,78.17
2023-01-03T13:12:35.106Z,78.31
2023-01-03T13:15:36.208Z,78.64
2023-01-03T13:18:21.900Z,78.62
2023-01-03T13:20:50.604Z,77.26
2023-01-03T13:23:32.753Z,79.16
2023-01-03T13:26:21.484Z,78.39
2023-01-03T13:28:48.884Z,77.05
2023-01-03T13:31:19.434Z,77.82
2023-01-03T13:33:52.474Z,77.16
2023-01-03T13:36:19.791Z,77.45
2023-01-03T13:38:47.335Z,78.01
2023-01-03T13:41:38.145Z,79.99
2023-01-03T13:44:17.741Z,78.73
2023-01-03T13:46:45.226Z,78.60
2023-01-03T13:49:27.891Z,79.61
2023-01-03T13:51:59.473Z,78.90
2023-01-03T13:54:58.025Z,78.97
2023-01-03T13:57:31.376Z,80.40
2023-01-03T13:59:59.953Z,80.60
2023-01-03T14:02:53.593Z,79.88
2023-01-03T14:05:45.483Z,80.99
2023-01-03T14:08:41.727Z,80.39
2023-01-03T14:11:15.970Z,81.38
2023-01-03T14:13:49.074Z,81.71
2023-01-03T14:16:31.046Z,81.16
2023-01-03T14:19:02.726Z,82.37
2023-01-03T14:21:48.765Z,81.47
2023-01-03T14:24:20.571Z,81.65
2023-01-03T14:26:48.282Z,82.71
2023-01-03T14:29:20.521Z,82.47
2023-01-03T14:31:51.406Z,82.63
2023-01-03T14:34:35.854Z,83.09
2023-01-03T14:37:24.939Z,83.81
2023-01-03T14:39:56.816Z,82.93
2023-01-03T14:42:24.379Z,82.67
2023-01-03T14:45:03.358Z,83.49
2023-01-03T14:47:41.582Z,83.51
2023-01-03T14:50:30.091Z,83.42
2023-01-03T14:52:59.110Z,84.72
2023-01-03T14:55:29.356Z,84.65
2023-01-03T14:57:57.452Z,83.95
2023-01-03T15:00:33.369Z,83.99
2023-01-03T15:03:02.243Z,84.66
2023-01-03T15:05:35.084Z,84.43
2023-01-03T15:08:31.371Z,85.59
2023-01-03T15:11:08.222Z,85.41
2023-01-03T15:13:41.241Z,85.83
2023-01-03T15:16:31.367Z,85.72
2023-01-03T15:19:21.423Z,86.35
2023-01-03T15:21:49.189Z,85.83
2023-01-03T15:24:22.775Z,86.43
2023-01-03T15:26:53.710Z,87.18
2023-01-03T15:29:25.072Z,86.91
2023-01-03T15:32:01.711Z,87.06
2023-01-03T15:34:41.688Z,87.36
2023-01-03T15:37:22.475Z,87.06
2023-01-03T15:39:54.729Z,88.01
2023-01-03T15:42:45.281Z,88.45
2023-01-03T15:45:35.410Z,89.08
2023-01-03T15:48:04.985Z,88.89
2023-01-03T15:50:51.421Z,89.18
2023-01-03T15:53:24.203Z,89.00
2023-01-03T15:55:54.657Z,89.55
2023-01-03T15:58:23.446Z,89.98
2023-01-03T16:00:50.751Z,90.61
2023-01-03T16:03:20.301Z,90.77
2023-01-03T16:05:47.652Z,91.95
2023-01-03T16:08:31.079Z,92.51
2023-01-03T16:11:00.030Z,92.96
2023-01-03T16:13:29.879Z,92.68
2023-01-03T16:15:59.242Z,92.38
2023-01-03T16:18:34.954Z,92.77
2023-01-03T16:21:02.470Z,93.85
2023-01-03T16:23:31.592Z,93.95
2023-01-03T16:25:58.798Z,94.06
2023-01-03T16:28:26.710Z,93.89
2023-01-03T16:31:16.394Z,94.40
2023-01-03T16:33:44.207Z,94.41
2023-01-03T16:36:37.338Z,94.45
2023-01-03T16:39:06.787Z,94.25
2023-01-03T16:41:34.240Z,94.17
2023-01-03T16:44:04.265Z,94.30
2023-01-03T16:46:31.618Z,94.31
2023-01-03T16:48:59.954Z,94.18
2023-01-03T16:51:32.697Z,94.13
2023-01-03T16:54:00.890Z,93.98
2023-01-03T16:56:28.616Z,94.58
2023-01-03T16:58:56.115Z,95.16
2023-01-03T17:01:23.703Z,95.59
2023-01-03T17:03:51.585Z,95.29
2023-01-03T17:06:37.477Z,95.46
2023-01-03T17:09:21.157Z,95.11
2023-01-03T17:11:48.682Z,94.46
2023-01-03T17:14:18.697Z,94.73
2023-01-03T17:16:46.540Z,95.01
2023-01-03T17:20:01.585Z,95.11
2023-01-03T17:22:07.360Z,95.58
2023-01-03T17:24:34.762Z,95.87
2023-01-03T17:27:04.226Z,95.59
2023-01-03T17:29:31.679Z,96.34
2023-01-03T17:31:59.097Z,96.79
2023-01-03T17:34:30.121Z,97.23
2023-01-03T17:36:58.828Z,97.48
2023-01-03T17:39:27.130Z,97.96
2023-01-03T17:42:12.566Z,98.61
2023-01-03T17:44:40.271Z,98.75
2023-01-03T17:47:35.186Z,98.51
2023-01-03T17:50:02.851Z,97.93
2023-01-03T17:52:34.001Z,97.18
2023-01-03T17:55:04.606Z,96.75
2023-01-03T17:57:32.771Z,96.38
2023-01-03T18:00:00.392Z,96.79
2023-01-03T18:02:28.478Z,96.53
2023-01-03T18:07:45.678Z,95.54
2023-01-03T18:10:18.395Z,95.07
2023-01-03T18:12:45.675Z,95.30
2023-01-03T18:15:21.433Z,95.74
2023-01-03T18:17:49.592Z,96.36
2023-01-03T18:20:18.435Z,97.25
2023-01-03T18:22:46.982Z,97.73
2023-01-03T18:25:22.743Z,97.38
2023-01-03T18:28:01.483Z,97.79
2023-01-03T18:30:29.098Z,99.38
2023-01-03T18:32:56.419Z,99.95
2023-01-03T18:35:29.579Z,100.00
2023-01-03T18:38:00.126Z,99.93
2023-01-03T18:40:27.807Z,99.79
2023-01-03T18:43:09.582Z,99.52
2023-01-03T18:45:37.983Z,99.36
2023-01-03T18:48:05.623Z,99.81
2023-01-03T18:50:32.988Z,100.00
2023-01-03T18:53:04.060Z,100.00
2023-01-03T18:55:33.935Z,100.00
2023-01-03T18:58:08.096Z,100.00
2023-01-03T19:00:35.369Z,100.00
2023-01-03T19:03:13.436Z,100.00
2023-01-03T19:05:40.877Z,100.00
2023-01-03T19:08:09.194Z,100.00
2023-01-03T19:10:36.456Z,100.00
2023-01-03T19:13:03.706Z,100.00
2023-01-03T19:15:31.036Z,100.00
2023-01-03T19:18:01.432Z,100.00
2023-01-03T19:20:28.782Z,100.00
2023-01-03T19:22:56.222Z,100.00
2023-01-03T19:25:25.393Z,100.00
2023-01-03T19:27:54.593Z,100.00
2023-01-03T19:30:38.150Z,100.00
2023-01-03T19:33:08.624Z,100.00
2023-01-03T19:35:35.858Z,100.00
2023-01-03T19:38:03.322Z,99.62
2023-01-03T19:40:32.836Z,98.89
2023-01-03T19:43:00.657Z,98.14
2023-01-03T19:45:36.393Z,98.29
2023-01-03T19:48:12.803Z,98.32
2023-01-03T19:50:40.696Z,98.21
2023-01-03T19:53:07.905Z,98.32
2023-01-03T19:55:42.612Z,97.85
2023-01-03T19:58:17.761Z,97.61
2023-01-03T20:00:47.875Z,97.87
2023-01-03T20:03:38.966Z,97.78
2023-01-03T20:06:08.704Z,97.91
2023-01-03T20:08:35.903Z,97.68
2023-01-03T20:11:03.862Z,97.81
2023-01-03T20:13:32.862Z,97.48
2023-01-03T20:16:02.050Z,96.97
2023-01-03T20:18:30.117Z,96.44
2023-01-03T20:21:22.881Z,97.44
2023-01-03T20:23:55.506Z,98.10
2023-01-03T20:26:25.817Z,97.91
2023-01-03T20:28:54.786Z,98.52
2023-01-03T20:31:22.542Z,98.84
2023-01-03T20:33:50.232Z,99.76
2023-01-03T20:36:25.573Z,100.00
2023-01-03T20:38:54.257Z,100.00
2023-01-03T20:41:23.587Z,100.00
2023-01-03T20:43:52.356Z,100.00
2023-01-03T20:46:21.377Z,99.56
2023-01-03T20:48:56.118Z,99.31
2023-01-03T20:51:26.871Z,98.83
2023-01-03T20:53:55.454Z,98.28
2023-01-03T20:56:23.327Z,97.70
2023-01-03T20:58:50.762Z,97.71
2023-01-03T21:01:18.228Z,97.61
2023-01-03T21:03:45.746Z,97.94
2023-01-03T21:06:20.732Z,97.38
2023-01-03T21:08:54.820Z,96.95
2023-01-03T21:11:28.971Z,96.83
2023-01-03T21:13:57.697Z,96.20
2023-01-03T21:16:36.724Z,95.91
2023-01-03T21:19:09.741Z,96.44
2023-01-03T21:21:37.060Z,96.99
2023-01-03T21:24:05.037Z,96.66
2023-01-03T21:26:32.402Z,96.48
2023-01-03T21:29:03.268Z,96.48
2023-01-03T21:31:30.889Z,96.79
2023-01-03T21:33:58.252Z,96.30
2023-01-03T21:36:33.578Z,96.41
2023-01-03T21:39:03.057Z,96.56
2023-01-03T21:41:32.727Z,96.89
2023-01-03T21:44:07.412Z,96.82
2023-01-03T21:46:34.840Z,96.61
2023-01-03T21:49:02.446Z,96.58
2023-01-03T21:51:38.325Z,96.42
2023-01-03T21:54:07.281Z,96.28
2023-01-03T21:56:37.626Z,96.40
2023-01-03T21:59:04.992Z,96.17
2023-01-03T22:01:52.273Z,96.42
2023-01-03T22:04:19.519Z,95.99
2023-01-03T22:06:46.901Z,95.72
2023-01-03T22:09:34.033Z,95.51
2023-01-03T22:12:01.192Z,96.23
2023-01-03T22:14:28.363Z,96.57
2023-01-03T22:16:55.576Z,96.95
2023-01-03T22:19:22.795Z,97.48
2023-01-03T22:21:50.141Z,98.18
2023-01-03T22:24:17.304Z,97.77
2023-01-03T22:26:44.489Z,98.33
2023-01-03T22:29:12.392Z,98.73
2023-01-03T22:31:39.628Z,98.43
2023-01-03T22:34:06.785Z,98.06
2023-01-03T22:36:33.963Z,98.34
2023-01-03T22:39:01.161Z,98.79
2023-01-03T22:41:28.560Z,99.80
2023-01-03T22:43:55.819Z,99.57
2023-01-03T22:46:24.154Z,99.94
2023-01-03T22:48:51.612Z,100.00
2023-01-03T22:51:19.035Z,100.00
2023-01-03T22:53:49.010Z,100.00
2023-01-03T22:56:17.459Z,100.00
2023-01-03T22:58:45.721Z,100.00
2023-01-03T23:01:19.313Z,100.00
2023-01-03T23:03:47.959Z,100.00
2023-01-03T23:06:17.520Z,100.00
2023-01-03T23:08:45.437Z,100.00
2023-01-03T23:11:34.660Z,100.00
2023-01-03T23:14:04.042Z,100.00
2023-01-03T23:16:32.246Z,100.00
2023-01-03T23:19:03.759Z,100.00
2023-01-03T23:21:30.970Z,100.00
2023-01-03T23:23:58.475Z,100.00
2023-01-03T23:26:26.124Z,100.00
2023-01-03T23:28:57.433Z,100.00
2023-01-03T23:31:27.235Z,100.00
2023-01-03T23:33:55.493Z,100.00
2023-01-03T23:36:22.690Z,100.00
2023-01-03T23:38:50.106Z,100.00
2023-01-03T23:41:17.871Z,100.00
2023-01-03T23:43:45.212Z,100.00
2023-01-03T23:46:20.062Z,100.00
2023-01-03T23:48:47.733Z,100.00
2023-01-03T23:51:15.794Z,100.00
2023-01-03T23:53:43.789Z,100.00
2023-01-03T23:56:14.581Z,100.00
2023-01-03T23:58:42.025Z,100.00
